sensor_id;sensor_type;location;lat;lon;timestamp;P1;durP1;ratioP1;P2;durP2;ratioP2
22543;SDS011;11438;52.044;8.716;2023-01-30T00:02:04;23.87;;;14.23;;
22543;SDS011;11438;52.044;8.716;2023-01-30T00:04:29;30.40;;;16.60;;
22543;SDS011;11438;52.044;8.716;2023-01-30T00:06:55;32.20;;;15.67;;
22543;SDS011;11438;52.044;8.716;2023-01-30T00:09:20;27.37;;;15.70;;
22543;SDS011;11438;52.044;8.716;2023-01-30T00:11:46;28.37;;;15.03;;
22543;SDS011;11438;52.044;8.716;2023-01-30T00:14:11;28.90;;;15.40;;
22543;SDS011;11438;52.044;8.716;2023-01-30T00:16:37;29.70;;;16.67;;
22543;SDS011;11438;52.044;8.716;2023-01-30T00:19:02;30.77;;;16.53;;
22543;SDS011;11438;52.044;8.716;2023-01-30T00:21:28;32.37;;;18.10;;
22543;SDS011;11438;52.044;8.716;2023-01-30T00:23:53;29.63;;;16.87;;
22543;SDS011;11438;52.044;8.716;2023-01-30T00:26:19;28.60;;;15.20;;
22543;SDS011;11438;52.044;8.716;2023-01-30T00:28:44;28.73;;;15.57;;
22543;SDS011;11438;52.044;8.716;2023-01-30T00:31:10;28.07;;;15.97;;
22543;SDS011;11438;52.044;8.716;2023-01-30T00:33:36;29.40;;;15.77;;
22543;SDS011;11438;52.044;8.716;2023-01-30T00:36:03;30.73;;;16.90;;
22543;SDS011;11438;52.044;8.716;2023-01-30T00:38:29;30.73;;;17.67;;
22543;SDS011;11438;52.044;8.716;2023-01-30T00:40:54;30.53;;;16.60;;
22543;SDS011;11438;52.044;8.716;2023-01-30T00:43:20;28.97;;;16.63;;
22543;SDS011;11438;52.044;8.716;2023-01-30T00:46:08;31.67;;;18.10;;
22543;SDS011;11438;52.044;8.716;2023-01-30T00:48:57;29.90;;;17.30;;
22543;SDS011;11438;52.044;8.716;2023-01-30T00:51:22;30.23;;;17.30;;
22543;SDS011;11438;52.044;8.716;2023-01-30T00:53:48;32.10;;;17.10;;
22543;SDS011;11438;52.044;8.716;2023-01-30T00:56:13;29.07;;;17.17;;
22543;SDS011;11438;52.044;8.716;2023-01-30T00:58:39;32.67;;;18.90;;
22543;SDS011;11438;52.044;8.716;2023-01-30T01:01:04;27.03;;;15.67;;
22543;SDS011;11438;52.044;8.716;2023-01-30T01:03:30;32.87;;;18.30;;
22543;SDS011;11438;52.044;8.716;2023-01-30T01:05:55;34.23;;;19.07;;
22543;SDS011;11438;52.044;8.716;2023-01-30T01:08:20;43.80;;;21.90;;
22543;SDS011;11438;52.044;8.716;2023-01-30T01:10:46;33.73;;;18.47;;
22543;SDS011;11438;52.044;8.716;2023-01-30T01:13:12;34.60;;;17.47;;
22543;SDS011;11438;52.044;8.716;2023-01-30T01:15:37;33.40;;;18.97;;
22543;SDS011;11438;52.044;8.716;2023-01-30T01:18:03;41.07;;;21.77;;
22543;SDS011;11438;52.044;8.716;2023-01-30T01:20:28;32.60;;;19.17;;
22543;SDS011;11438;52.044;8.716;2023-01-30T01:22:54;36.03;;;19.37;;
22543;SDS011;11438;52.044;8.716;2023-01-30T01:25:21;32.67;;;18.73;;
22543;SDS011;11438;52.044;8.716;2023-01-30T01:27:47;35.07;;;19.20;;
22543;SDS011;11438;52.044;8.716;2023-01-30T01:30:13;30.83;;;17.10;;
22543;SDS011;11438;52.044;8.716;2023-01-30T01:32:40;31.30;;;16.97;;
22543;SDS011;11438;52.044;8.716;2023-01-30T01:35:05;28.67;;;17.00;;
22543;SDS011;11438;52.044;8.716;2023-01-30T01:37:31;31.93;;;16.60;;
22543;SDS011;11438;52.044;8.716;2023-01-30T01:39:56;32.70;;;17.20;;
22543;SDS011;11438;52.044;8.716;2023-01-30T01:42:41;34.03;;;18.37;;
22543;SDS011;11438;52.044;8.716;2023-01-30T01:50:37;33.97;;;19.70;;
22543;SDS011;11438;52.044;8.716;2023-01-30T01:53:07;29.70;;;17.43;;
22543;SDS011;11438;52.044;8.716;2023-01-30T01:55:35;31.43;;;16.17;;
22543;SDS011;11438;52.044;8.716;2023-01-30T01:58:04;28.87;;;16.27;;
22543;SDS011;11438;52.044;8.716;2023-01-30T02:00:33;31.10;;;15.90;;
22543;SDS011;11438;52.044;8.716;2023-01-30T02:02:59;34.97;;;18.93;;
22543;SDS011;11438;52.044;8.716;2023-01-30T02:05:28;33.60;;;17.93;;
22543;SDS011;11438;52.044;8.716;2023-01-30T02:07:59;26.00;;;14.60;;
22543;SDS011;11438;52.044;8.716;2023-01-30T02:10:40;27.03;;;15.87;;
22543;SDS011;11438;52.044;8.716;2023-01-30T02:13:14;26.77;;;15.73;;
22543;SDS011;11438;52.044;8.716;2023-01-30T02:15:41;28.20;;;15.07;;
22543;SDS011;11438;52.044;8.716;2023-01-30T02:18:07;32.87;;;17.33;;
22543;SDS011;11438;52.044;8.716;2023-01-30T02:20:39;31.87;;;17.57;;
22543;SDS011;11438;52.044;8.716;2023-01-30T02:26:06;30.13;;;15.97;;
22543;SDS011;11438;52.044;8.716;2023-01-30T02:28:57;30.63;;;16.63;;
22543;SDS011;11438;52.044;8.716;2023-01-30T02:31:46;33.43;;;17.07;;
22543;SDS011;11438;52.044;8.716;2023-01-30T02:34:28;30.20;;;17.33;;
22543;SDS011;11438;52.044;8.716;2023-01-30T02:40:24;31.13;;;17.97;;
22543;SDS011;11438;52.044;8.716;2023-01-30T02:45:52;27.57;;;16.53;;
22543;SDS011;11438;52.044;8.716;2023-01-30T02:48:24;30.33;;;16.53;;
22543;SDS011;11438;52.044;8.716;2023-01-30T02:50:56;32.33;;;17.43;;
22543;SDS011;11438;52.044;8.716;2023-01-30T02:53:29;29.93;;;17.00;;
22543;SDS011;11438;52.044;8.716;2023-01-30T02:55:56;32.90;;;18.97;;
22543;SDS011;11438;52.044;8.716;2023-01-30T02:58:22;30.07;;;18.80;;
22543;SDS011;11438;52.044;8.716;2023-01-30T03:06:21;28.90;;;15.43;;
22543;SDS011;11438;52.044;8.716;2023-01-30T03:09:11;28.63;;;16.10;;
22543;SDS011;11438;52.044;8.716;2023-01-30T03:12:07;30.67;;;16.80;;
22543;SDS011;11438;52.044;8.716;2023-01-30T03:17:10;31.83;;;18.43;;
22543;SDS011;11438;52.044;8.716;2023-01-30T03:19:37;26.83;;;15.77;;
22543;SDS011;11438;52.044;8.716;2023-01-30T03:22:03;32.80;;;18.60;;
22543;SDS011;11438;52.044;8.716;2023-01-30T03:24:29;35.17;;;18.70;;
22543;SDS011;11438;52.044;8.716;2023-01-30T03:26:59;31.90;;;18.23;;
22543;SDS011;11438;52.044;8.716;2023-01-30T03:29:29;28.93;;;15.50;;
22543;SDS011;11438;52.044;8.716;2023-01-30T03:31:55;27.83;;;15.93;;
22543;SDS011;11438;52.044;8.716;2023-01-30T03:34:20;27.33;;;15.90;;
22543;SDS011;11438;52.044;8.716;2023-01-30T03:36:46;27.83;;;14.83;;
22543;SDS011;11438;52.044;8.716;2023-01-30T03:39:12;25.33;;;13.37;;
22543;SDS011;11438;52.044;8.716;2023-01-30T03:41:37;26.00;;;15.73;;
22543;SDS011;11438;52.044;8.716;2023-01-30T03:44:03;26.10;;;15.60;;
22543;SDS011;11438;52.044;8.716;2023-01-30T03:46:29;24.17;;;14.90;;
22543;SDS011;11438;52.044;8.716;2023-01-30T03:48:54;24.47;;;15.23;;
22543;SDS011;11438;52.044;8.716;2023-01-30T03:51:20;23.33;;;14.57;;
22543;SDS011;11438;52.044;8.716;2023-01-30T03:53:45;22.70;;;13.93;;
22543;SDS011;11438;52.044;8.716;2023-01-30T03:56:10;19.50;;;12.33;;
22543;SDS011;11438;52.044;8.716;2023-01-30T03:58:36;19.50;;;12.53;;
22543;SDS011;11438;52.044;8.716;2023-01-30T04:01:01;22.43;;;13.03;;
22543;SDS011;11438;52.044;8.716;2023-01-30T04:03:27;20.90;;;12.23;;
22543;SDS011;11438;52.044;8.716;2023-01-30T04:05:53;19.83;;;11.90;;
22543;SDS011;11438;52.044;8.716;2023-01-30T04:08:18;19.80;;;12.93;;
22543;SDS011;11438;52.044;8.716;2023-01-30T04:10:44;20.63;;;12.10;;
22543;SDS011;11438;52.044;8.716;2023-01-30T04:13:09;18.63;;;11.73;;
22543;SDS011;11438;52.044;8.716;2023-01-30T04:15:35;19.60;;;12.60;;
22543;SDS011;11438;52.044;8.716;2023-01-30T04:18:00;17.23;;;11.23;;
22543;SDS011;11438;52.044;8.716;2023-01-30T04:20:25;17.37;;;11.60;;
22543;SDS011;11438;52.044;8.716;2023-01-30T04:22:57;16.40;;;10.60;;
22543;SDS011;11438;52.044;8.716;2023-01-30T04:25:23;17.00;;;11.27;;
22543;SDS011;11438;52.044;8.716;2023-01-30T04:27:48;17.63;;;11.93;;
22543;SDS011;11438;52.044;8.716;2023-01-30T04:30:14;18.87;;;11.73;;
22543;SDS011;11438;52.044;8.716;2023-01-30T04:32:40;15.70;;;10.67;;
22543;SDS011;11438;52.044;8.716;2023-01-30T04:35:05;18.23;;;11.70;;
22543;SDS011;11438;52.044;8.716;2023-01-30T04:37:31;19.60;;;13.40;;
22543;SDS011;11438;52.044;8.716;2023-01-30T04:39:56;19.10;;;11.63;;
22543;SDS011;11438;52.044;8.716;2023-01-30T04:42:22;16.20;;;11.00;;
22543;SDS011;11438;52.044;8.716;2023-01-30T04:44:47;19.37;;;12.93;;
22543;SDS011;11438;52.044;8.716;2023-01-30T04:47:13;18.53;;;11.57;;
22543;SDS011;11438;52.044;8.716;2023-01-30T04:49:38;17.77;;;10.87;;
22543;SDS011;11438;52.044;8.716;2023-01-30T04:52:04;15.83;;;10.93;;
22543;SDS011;11438;52.044;8.716;2023-01-30T04:54:30;17.70;;;11.33;;
22543;SDS011;11438;52.044;8.716;2023-01-30T04:56:55;16.77;;;11.93;;
22543;SDS011;11438;52.044;8.716;2023-01-30T04:59:21;15.77;;;10.47;;
22543;SDS011;11438;52.044;8.716;2023-01-30T05:01:47;16.70;;;10.80;;
22543;SDS011;11438;52.044;8.716;2023-01-30T05:04:13;15.17;;;10.23;;
22543;SDS011;11438;52.044;8.716;2023-01-30T05:06:38;18.27;;;11.50;;
22543;SDS011;11438;52.044;8.716;2023-01-30T05:09:04;17.80;;;11.53;;
22543;SDS011;11438;52.044;8.716;2023-01-30T05:11:29;18.90;;;12.20;;
22543;SDS011;11438;52.044;8.716;2023-01-30T05:13:56;17.73;;;11.63;;
22543;SDS011;11438;52.044;8.716;2023-01-30T05:16:21;17.17;;;11.90;;
22543;SDS011;11438;52.044;8.716;2023-01-30T05:18:48;17.63;;;12.00;;
22543;SDS011;11438;52.044;8.716;2023-01-30T05:21:18;17.43;;;10.73;;
22543;SDS011;11438;52.044;8.716;2023-01-30T05:23:45;15.30;;;11.40;;
22543;SDS011;11438;52.044;8.716;2023-01-30T05:26:11;16.40;;;11.23;;
22543;SDS011;11438;52.044;8.716;2023-01-30T05:28:38;15.30;;;11.03;;
22543;SDS011;11438;52.044;8.716;2023-01-30T05:31:05;17.63;;;11.17;;
22543;SDS011;11438;52.044;8.716;2023-01-30T05:33:31;16.23;;;10.20;;
22543;SDS011;11438;52.044;8.716;2023-01-30T05:35:57;16.93;;;10.93;;
22543;SDS011;11438;52.044;8.716;2023-01-30T05:38:23;17.10;;;9.93;;
22543;SDS011;11438;52.044;8.716;2023-01-30T05:41:02;14.43;;;9.30;;
22543;SDS011;11438;52.044;8.716;2023-01-30T05:43:29;16.77;;;10.30;;
22543;SDS011;11438;52.044;8.716;2023-01-30T05:45:55;16.70;;;10.47;;
22543;SDS011;11438;52.044;8.716;2023-01-30T05:48:22;15.30;;;10.07;;
22543;SDS011;11438;52.044;8.716;2023-01-30T05:50:49;12.77;;;8.57;;
22543;SDS011;11438;52.044;8.716;2023-01-30T05:53:16;12.73;;;8.23;;
22543;SDS011;11438;52.044;8.716;2023-01-30T05:55:42;12.33;;;8.37;;
22543;SDS011;11438;52.044;8.716;2023-01-30T05:58:08;11.73;;;7.87;;
22543;SDS011;11438;52.044;8.716;2023-01-30T06:00:34;11.47;;;7.43;;
22543;SDS011;11438;52.044;8.716;2023-01-30T06:02:59;10.30;;;6.77;;
22543;SDS011;11438;52.044;8.716;2023-01-30T06:05:25;9.63;;;6.23;;
22543;SDS011;11438;52.044;8.716;2023-01-30T06:07:50;7.57;;;5.93;;
22543;SDS011;11438;52.044;8.716;2023-01-30T06:10:16;8.90;;;6.13;;
22543;SDS011;11438;52.044;8.716;2023-01-30T06:12:41;9.10;;;5.67;;
22543;SDS011;11438;52.044;8.716;2023-01-30T06:15:07;9.43;;;6.37;;
22543;SDS011;11438;52.044;8.716;2023-01-30T06:17:33;8.53;;;6.10;;
22543;SDS011;11438;52.044;8.716;2023-01-30T06:19:59;6.67;;;5.07;;
22543;SDS011;11438;52.044;8.716;2023-01-30T06:22:24;9.00;;;5.13;;
22543;SDS011;11438;52.044;8.716;2023-01-30T06:24:50;7.00;;;4.47;;
22543;SDS011;11438;52.044;8.716;2023-01-30T06:27:15;6.57;;;4.20;;
22543;SDS011;11438;52.044;8.716;2023-01-30T06:29:41;7.73;;;5.00;;
22543;SDS011;11438;52.044;8.716;2023-01-30T06:32:06;7.43;;;5.30;;
22543;SDS011;11438;52.044;8.716;2023-01-30T06:34:33;10.07;;;6.32;;
22543;SDS011;11438;52.044;8.716;2023-01-30T06:36:59;8.43;;;5.17;;
22543;SDS011;11438;52.044;8.716;2023-01-30T06:39:24;8.60;;;4.83;;
22543;SDS011;11438;52.044;8.716;2023-01-30T06:41:50;9.27;;;5.50;;
22543;SDS011;11438;52.044;8.716;2023-01-30T06:44:15;8.27;;;5.23;;
22543;SDS011;11438;52.044;8.716;2023-01-30T06:46:41;7.10;;;5.43;;
22543;SDS011;11438;52.044;8.716;2023-01-30T06:49:06;10.97;;;5.23;;
22543;SDS011;11438;52.044;8.716;2023-01-30T06:51:32;8.10;;;5.27;;
22543;SDS011;11438;52.044;8.716;2023-01-30T06:53:58;8.80;;;5.10;;
22543;SDS011;11438;52.044;8.716;2023-01-30T06:56:23;8.40;;;4.83;;
22543;SDS011;11438;52.044;8.716;2023-01-30T06:58:49;8.70;;;4.90;;
22543;SDS011;11438;52.044;8.716;2023-01-30T07:01:14;7.37;;;5.00;;
22543;SDS011;11438;52.044;8.716;2023-01-30T07:03:40;7.63;;;5.27;;
22543;SDS011;11438;52.044;8.716;2023-01-30T07:06:05;7.67;;;5.27;;
22543;SDS011;11438;52.044;8.716;2023-01-30T07:08:31;7.77;;;5.13;;
22543;SDS011;11438;52.044;8.716;2023-01-30T07:10:56;6.90;;;5.10;;
22543;SDS011;11438;52.044;8.716;2023-01-30T07:13:22;8.03;;;5.13;;
22543;SDS011;11438;52.044;8.716;2023-01-30T07:15:47;9.23;;;5.00;;
22543;SDS011;11438;52.044;8.716;2023-01-30T07:18:13;8.60;;;4.70;;
22543;SDS011;11438;52.044;8.716;2023-01-30T07:20:38;7.53;;;4.43;;
22543;SDS011;11438;52.044;8.716;2023-01-30T07:23:06;7.17;;;4.47;;
22543;SDS011;11438;52.044;8.716;2023-01-30T07:25:31;9.30;;;4.10;;
22543;SDS011;11438;52.044;8.716;2023-01-30T07:27:57;9.10;;;4.43;;
22543;SDS011;11438;52.044;8.716;2023-01-30T07:30:25;6.30;;;4.30;;
22543;SDS011;11438;52.044;8.716;2023-01-30T07:32:53;9.43;;;4.10;;
22543;SDS011;11438;52.044;8.716;2023-01-30T07:35:21;9.97;;;3.87;;
22543;SDS011;11438;52.044;8.716;2023-01-30T07:37:48;11.67;;;4.17;;
22543;SDS011;11438;52.044;8.716;2023-01-30T07:40:14;5.73;;;3.50;;
22543;SDS011;11438;52.044;8.716;2023-01-30T07:42:40;6.32;;;3.33;;
22543;SDS011;11438;52.044;8.716;2023-01-30T07:45:06;7.43;;;3.23;;
22543;SDS011;11438;52.044;8.716;2023-01-30T07:47:32;7.83;;;3.57;;
22543;SDS011;11438;52.044;8.716;2023-01-30T07:49:57;9.17;;;2.90;;
22543;SDS011;11438;52.044;8.716;2023-01-30T07:52:23;7.70;;;3.17;;
22543;SDS011;11438;52.044;8.716;2023-01-30T07:54:48;7.13;;;2.70;;
22543;SDS011;11438;52.044;8.716;2023-01-30T07:57:14;7.53;;;2.67;;
22543;SDS011;11438;52.044;8.716;2023-01-30T07:59:39;12.37;;;3.20;;
22543;SDS011;11438;52.044;8.716;2023-01-30T08:02:05;9.73;;;2.10;;
22543;SDS011;11438;52.044;8.716;2023-01-30T08:04:32;12.70;;;2.57;;
22543;SDS011;11438;52.044;8.716;2023-01-30T08:06:58;8.90;;;2.30;;
22543;SDS011;11438;52.044;8.716;2023-01-30T08:09:24;14.87;;;2.17;;
22543;SDS011;11438;52.044;8.716;2023-01-30T08:11:49;10.43;;;1.90;;
22543;SDS011;11438;52.044;8.716;2023-01-30T08:14:14;11.87;;;1.80;;
22543;SDS011;11438;52.044;8.716;2023-01-30T08:16:40;10.00;;;1.83;;
22543;SDS011;11438;52.044;8.716;2023-01-30T08:19:06;8.87;;;1.80;;
22543;SDS011;11438;52.044;8.716;2023-01-30T08:21:31;6.87;;;1.90;;
22543;SDS011;11438;52.044;8.716;2023-01-30T08:23:56;5.00;;;1.60;;
22543;SDS011;11438;52.044;8.716;2023-01-30T08:26:22;10.97;;;1.97;;
22543;SDS011;11438;52.044;8.716;2023-01-30T08:28:47;9.77;;;1.80;;
22543;SDS011;11438;52.044;8.716;2023-01-30T08:31:13;8.97;;;1.87;;
22543;SDS011;11438;52.044;8.716;2023-01-30T08:33:40;11.17;;;1.80;;
22543;SDS011;11438;52.044;8.716;2023-01-30T08:36:05;11.00;;;2.10;;
22543;SDS011;11438;52.044;8.716;2023-01-30T08:38:31;6.23;;;1.90;;
22543;SDS011;11438;52.044;8.716;2023-01-30T08:40:57;12.37;;;2.43;;
22543;SDS011;11438;52.044;8.716;2023-01-30T08:43:23;10.40;;;2.57;;
22543;SDS011;11438;52.044;8.716;2023-01-30T08:45:51;16.07;;;2.50;;
22543;SDS011;11438;52.044;8.716;2023-01-30T08:48:17;9.43;;;2.27;;
22543;SDS011;11438;52.044;8.716;2023-01-30T08:50:43;13.57;;;1.90;;
22543;SDS011;11438;52.044;8.716;2023-01-30T08:53:08;10.10;;;1.80;;
22543;SDS011;11438;52.044;8.716;2023-01-30T08:55:34;11.97;;;2.33;;
22543;SDS011;11438;52.044;8.716;2023-01-30T08:58:00;11.97;;;2.00;;
22543;SDS011;11438;52.044;8.716;2023-01-30T09:00:26;15.00;;;2.57;;
22543;SDS011;11438;52.044;8.716;2023-01-30T09:02:53;12.53;;;2.40;;
22543;SDS011;11438;52.044;8.716;2023-01-30T09:05:22;11.27;;;1.70;;
22543;SDS011;11438;52.044;8.716;2023-01-30T09:07:48;13.00;;;2.23;;
22543;SDS011;11438;52.044;8.716;2023-01-30T09:10:14;12.32;;;2.13;;
22543;SDS011;11438;52.044;8.716;2023-01-30T09:12:40;12.70;;;2.13;;
22543;SDS011;11438;52.044;8.716;2023-01-30T09:15:06;13.10;;;2.00;;
22543;SDS011;11438;52.044;8.716;2023-01-30T09:17:32;12.07;;;1.90;;
22543;SDS011;11438;52.044;8.716;2023-01-30T09:19:57;11.63;;;2.13;;
22543;SDS011;11438;52.044;8.716;2023-01-30T09:22:23;9.63;;;1.93;;
22543;SDS011;11438;52.044;8.716;2023-01-30T09:24:49;10.90;;;2.20;;
22543;SDS011;11438;52.044;8.716;2023-01-30T09:27:14;10.17;;;2.40;;
22543;SDS011;11438;52.044;8.716;2023-01-30T09:29:40;10.73;;;2.57;;
22543;SDS011;11438;52.044;8.716;2023-01-30T09:32:05;12.10;;;2.80;;
22543;SDS011;11438;52.044;8.716;2023-01-30T09:34:31;13.68;;;2.30;;
22543;SDS011;11438;52.044;8.716;2023-01-30T09:36:56;14.83;;;2.50;;
22543;SDS011;11438;52.044;8.716;2023-01-30T09:39:24;16.03;;;2.50;;
22543;SDS011;11438;52.044;8.716;2023-01-30T09:44:45;13.73;;;2.30;;
22543;SDS011;11438;52.044;8.716;2023-01-30T09:47:46;15.57;;;2.07;;
22543;SDS011;11438;52.044;8.716;2023-01-30T09:55:42;10.23;;;2.20;;
22543;SDS011;11438;52.044;8.716;2023-01-30T09:58:15;9.73;;;2.38;;
22543;SDS011;11438;52.044;8.716;2023-01-30T10:00:44;13.17;;;2.10;;
22543;SDS011;11438;52.044;8.716;2023-01-30T10:05:49;11.23;;;2.90;;
22543;SDS011;11438;52.044;8.716;2023-01-30T10:16:43;16.33;;;2.83;;
22543;SDS011;11438;52.044;8.716;2023-01-30T10:19:42;13.70;;;2.70;;
22543;SDS011;11438;52.044;8.716;2023-01-30T10:22:34;11.23;;;2.37;;
22543;SDS011;11438;52.044;8.716;2023-01-30T10:28:08;8.60;;;2.10;;
22543;SDS011;11438;52.044;8.716;2023-01-30T10:30:43;12.85;;;2.17;;
22543;SDS011;11438;52.044;8.716;2023-01-30T10:33:14;13.43;;;2.40;;
22543;SDS011;11438;52.044;8.716;2023-01-30T10:35:47;8.82;;;2.00;;
22543;SDS011;11438;52.044;8.716;2023-01-30T10:38:25;16.02;;;2.45;;
22543;SDS011;11438;52.044;8.716;2023-01-30T10:40:59;12.45;;;2.00;;
22543;SDS011;11438;52.044;8.716;2023-01-30T10:43:53;11.85;;;2.33;;
22543;SDS011;11438;52.044;8.716;2023-01-30T10:46:30;9.30;;;2.25;;
22543;SDS011;11438;52.044;8.716;2023-01-30T10:49:18;12.57;;;2.33;;
22543;SDS011;11438;52.044;8.716;2023-01-30T11:00:53;12.80;;;2.17;;
22543;SDS011;11438;52.044;8.716;2023-01-30T11:06:00;10.05;;;2.17;;
22543;SDS011;11438;52.044;8.716;2023-01-30T11:08:36;12.17;;;2.20;;
22543;SDS011;11438;52.044;8.716;2023-01-30T11:13:59;13.35;;;2.28;;
22543;SDS011;11438;52.044;8.716;2023-01-30T11:16:29;15.90;;;2.72;;
22543;SDS011;11438;52.044;8.716;2023-01-30T11:18:55;12.23;;;2.37;;
22543;SDS011;11438;52.044;8.716;2023-01-30T11:21:25;17.73;;;2.97;;
22543;SDS011;11438;52.044;8.716;2023-01-30T11:23:55;14.70;;;2.75;;
22543;SDS011;11438;52.044;8.716;2023-01-30T11:26:27;15.13;;;2.03;;
22543;SDS011;11438;52.044;8.716;2023-01-30T11:28:56;10.95;;;2.40;;
22543;SDS011;11438;52.044;8.716;2023-01-30T11:31:26;14.73;;;2.17;;
22543;SDS011;11438;52.044;8.716;2023-01-30T11:34:00;13.20;;;2.28;;
22543;SDS011;11438;52.044;8.716;2023-01-30T11:36:30;16.98;;;2.90;;
22543;SDS011;11438;52.044;8.716;2023-01-30T11:41:24;12.88;;;2.22;;
22543;SDS011;11438;52.044;8.716;2023-01-30T11:43:50;12.00;;;2.30;;
22543;SDS011;11438;52.044;8.716;2023-01-30T11:46:24;9.98;;;2.15;;
22543;SDS011;11438;52.044;8.716;2023-01-30T11:48:55;14.07;;;2.20;;
22543;SDS011;11438;52.044;8.716;2023-01-30T11:51:25;12.70;;;2.45;;
22543;SDS011;11438;52.044;8.716;2023-01-30T11:53:55;12.15;;;1.75;;
22543;SDS011;11438;52.044;8.716;2023-01-30T11:58:54;11.18;;;2.22;;
22543;SDS011;11438;52.044;8.716;2023-01-30T12:01:26;15.43;;;2.92;;
22543;SDS011;11438;52.044;8.716;2023-01-30T12:03:54;12.63;;;2.53;;
22543;SDS011;11438;52.044;8.716;2023-01-30T12:06:31;13.90;;;2.60;;
22543;SDS011;11438;52.044;8.716;2023-01-30T12:08:59;9.30;;;2.17;;
22543;SDS011;11438;52.044;8.716;2023-01-30T12:17:17;13.07;;;2.67;;
22543;SDS011;11438;52.044;8.716;2023-01-30T12:31:31;13.30;;;2.88;;
22543;SDS011;11438;52.044;8.716;2023-01-30T12:34:03;14.23;;;2.43;;
22543;SDS011;11438;52.044;8.716;2023-01-30T12:36:40;12.23;;;2.70;;
22543;SDS011;11438;52.044;8.716;2023-01-30T12:39:32;10.02;;;2.15;;
22543;SDS011;11438;52.044;8.716;2023-01-30T12:44:57;13.25;;;2.15;;
22543;SDS011;11438;52.044;8.716;2023-01-30T12:50:55;8.20;;;1.97;;
22543;SDS011;11438;52.044;8.716;2023-01-30T12:53:35;10.25;;;1.70;;
22543;SDS011;11438;52.044;8.716;2023-01-30T13:04:12;6.67;;;1.27;;
22543;SDS011;11438;52.044;8.716;2023-01-30T13:15:20;5.50;;;0.97;;
22543;SDS011;11438;52.044;8.716;2023-01-30T13:18:17;5.40;;;1.00;;
22543;SDS011;11438;52.044;8.716;2023-01-30T13:20:51;4.37;;;0.83;;
22543;SDS011;11438;52.044;8.716;2023-01-30T13:26:15;8.87;;;1.70;;
22543;SDS011;11438;52.044;8.716;2023-01-30T13:28:48;8.73;;;1.60;;
22543;SDS011;11438;52.044;8.716;2023-01-30T13:31:18;7.40;;;1.33;;
22543;SDS011;11438;52.044;8.716;2023-01-30T13:33:48;10.20;;;1.33;;
22543;SDS011;11438;52.044;8.716;2023-01-30T13:39:11;7.73;;;1.70;;
22543;SDS011;11438;52.044;8.716;2023-01-30T13:41:47;5.27;;;1.60;;
22543;SDS011;11438;52.044;8.716;2023-01-30T13:44:27;7.50;;;1.60;;
22543;SDS011;11438;52.044;8.716;2023-01-30T13:46:55;14.30;;;2.00;;
22543;SDS011;11438;52.044;8.716;2023-01-30T13:52:20;10.03;;;1.80;;
22543;SDS011;11438;52.044;8.716;2023-01-30T13:57:48;9.00;;;2.40;;
22543;SDS011;11438;52.044;8.716;2023-01-30T14:00:33;10.35;;;1.98;;
22543;SDS011;11438;52.044;8.716;2023-01-30T14:08:19;9.93;;;1.60;;
22543;SDS011;11438;52.044;8.716;2023-01-30T14:10:47;7.45;;;1.95;;
22543;SDS011;11438;52.044;8.716;2023-01-30T14:13:14;9.93;;;2.00;;
22543;SDS011;11438;52.044;8.716;2023-01-30T14:15:50;5.43;;;1.30;;
22543;SDS011;11438;52.044;8.716;2023-01-30T14:18:20;4.65;;;1.60;;
22543;SDS011;11438;52.044;8.716;2023-01-30T14:20:49;11.07;;;1.40;;
22543;SDS011;11438;52.044;8.716;2023-01-30T14:23:20;9.88;;;1.42;;
22543;SDS011;11438;52.044;8.716;2023-01-30T14:25:49;7.70;;;1.60;;
22543;SDS011;11438;52.044;8.716;2023-01-30T14:30:52;6.53;;;1.50;;
22543;SDS011;11438;52.044;8.716;2023-01-30T14:38:28;8.70;;;1.50;;
22543;SDS011;11438;52.044;8.716;2023-01-30T14:45:59;13.27;;;1.80;;
22543;SDS011;11438;52.044;8.716;2023-01-30T14:48:31;12.70;;;2.03;;
22543;SDS011;11438;52.044;8.716;2023-01-30T14:54:06;7.97;;;1.73;;
22543;SDS011;11438;52.044;8.716;2023-01-30T15:07:18;6.70;;;1.57;;
22543;SDS011;11438;52.044;8.716;2023-01-30T15:10:02;6.57;;;1.65;;
22543;SDS011;11438;52.044;8.716;2023-01-30T15:12:40;6.27;;;1.73;;
22543;SDS011;11438;52.044;8.716;2023-01-30T15:15:20;7.93;;;1.73;;
22543;SDS011;11438;52.044;8.716;2023-01-30T15:20:27;8.93;;;1.92;;
22543;SDS011;11438;52.044;8.716;2023-01-30T15:31:55;6.90;;;1.47;;
22543;SDS011;11438;52.044;8.716;2023-01-30T15:34:22;9.80;;;1.58;;
22543;SDS011;11438;52.044;8.716;2023-01-30T15:36:52;9.57;;;1.73;;
22543;SDS011;11438;52.044;8.716;2023-01-30T15:39:21;10.23;;;2.37;;
22543;SDS011;11438;52.044;8.716;2023-01-30T15:41:51;5.47;;;1.23;;
22543;SDS011;11438;52.044;8.716;2023-01-30T15:50:08;8.83;;;1.77;;
22543;SDS011;11438;52.044;8.716;2023-01-30T15:52:41;16.10;;;1.98;;
22543;SDS011;11438;52.044;8.716;2023-01-30T15:55:21;9.80;;;2.00;;
22543;SDS011;11438;52.044;8.716;2023-01-30T15:57:57;10.48;;;1.85;;
22543;SDS011;11438;52.044;8.716;2023-01-30T16:00:30;12.95;;;2.15;;
22543;SDS011;11438;52.044;8.716;2023-01-30T16:03:00;10.03;;;1.90;;
22543;SDS011;11438;52.044;8.716;2023-01-30T16:05:28;5.90;;;1.57;;
22543;SDS011;11438;52.044;8.716;2023-01-30T16:07:54;11.23;;;1.80;;
22543;SDS011;11438;52.044;8.716;2023-01-30T16:10:25;10.52;;;1.80;;
22543;SDS011;11438;52.044;8.716;2023-01-30T16:12:53;9.07;;;2.10;;
22543;SDS011;11438;52.044;8.716;2023-01-30T16:17:57;8.40;;;2.10;;
22543;SDS011;11438;52.044;8.716;2023-01-30T16:20:47;12.00;;;2.23;;
22543;SDS011;11438;52.044;8.716;2023-01-30T16:23:23;9.50;;;2.00;;
22543;SDS011;11438;52.044;8.716;2023-01-30T16:26:01;11.95;;;2.20;;
22543;SDS011;11438;52.044;8.716;2023-01-30T16:28:28;9.63;;;2.00;;
22543;SDS011;11438;52.044;8.716;2023-01-30T16:30:56;13.37;;;2.17;;
22543;SDS011;11438;52.044;8.716;2023-01-30T16:33:28;12.17;;;2.37;;
22543;SDS011;11438;52.044;8.716;2023-01-30T16:36:00;14.40;;;2.42;;
22543;SDS011;11438;52.044;8.716;2023-01-30T16:38:33;6.97;;;1.83;;
22543;SDS011;11438;52.044;8.716;2023-01-30T16:41:26;9.30;;;2.13;;
22543;SDS011;11438;52.044;8.716;2023-01-30T16:44:17;11.17;;;2.10;;
22543;SDS011;11438;52.044;8.716;2023-01-30T16:46:57;12.00;;;2.53;;
22543;SDS011;11438;52.044;8.716;2023-01-30T16:52:00;12.17;;;2.20;;
22543;SDS011;11438;52.044;8.716;2023-01-30T16:54:36;8.43;;;2.40;;
22543;SDS011;11438;52.044;8.716;2023-01-30T16:57:05;9.83;;;2.30;;
22543;SDS011;11438;52.044;8.716;2023-01-30T16:59:31;16.47;;;2.67;;
22543;SDS011;11438;52.044;8.716;2023-01-30T17:02:01;21.17;;;2.83;;
22543;SDS011;11438;52.044;8.716;2023-01-30T17:04:30;13.45;;;2.85;;
22543;SDS011;11438;52.044;8.716;2023-01-30T17:06:58;9.80;;;2.45;;
22543;SDS011;11438;52.044;8.716;2023-01-30T17:09:35;13.37;;;2.83;;
22543;SDS011;11438;52.044;8.716;2023-01-30T17:15:35;8.00;;;1.97;;
22543;SDS011;11438;52.044;8.716;2023-01-30T17:17:36;16.80;;;2.90;;
22543;SDS011;11438;52.044;8.716;2023-01-30T17:20:03;11.35;;;2.25;;
22543;SDS011;11438;52.044;8.716;2023-01-30T17:22:29;17.20;;;3.00;;
22543;SDS011;11438;52.044;8.716;2023-01-30T17:24:58;13.07;;;2.63;;
22543;SDS011;11438;52.044;8.716;2023-01-30T17:27:26;16.67;;;2.60;;
22543;SDS011;11438;52.044;8.716;2023-01-30T17:29:53;11.65;;;3.03;;
22543;SDS011;11438;52.044;8.716;2023-01-30T17:32:19;13.50;;;2.30;;
22543;SDS011;11438;52.044;8.716;2023-01-30T17:34:44;18.93;;;2.50;;
22543;SDS011;11438;52.044;8.716;2023-01-30T17:37:14;16.33;;;3.10;;
22543;SDS011;11438;52.044;8.716;2023-01-30T17:39:41;15.18;;;2.95;;